Time,TemperatureF,DewpointF,PressureIn,WindDirection,WindDirectionDegrees,WindSpeedMPH,WindSpeedGustMPH,Humidity,HourlyPrecipIn,Conditions,Clouds,dailyrainin,SolarRadiationWatts/m^2,SoftwareType,DateUTC
2013-02-06 00:09:00,25.6,20.6,29.88,SW,226,2.0,4.0,81,0.00,,,0.00,0,Wunderground v.1.15,2013-02-06 05:09:00,
2013-02-06 00:20:00,25.8,20.5,29.88,SW,215,3.0,3.0,80,0.00,,,0.00,0,Wunderground v.1.15,2013-02-06 05:20:00,
2013-02-06 00:30:00,26.1,20.8,29.88,WSW,240,2.0,3.0,80,0.00,,,0.00,0,Wunderground v.1.15,2013-02-06 05:30:00,
2013-02-06 00:40:00,26.5,20.9,29.89,WSW,257,3.0,7.0,79,0.00,,,0.00,0,Wunderground v.1.15,2013-02-06 05:40:00,
2013-02-06 00:50:00,26.8,21.2,29.89,WSW,257,2.0,3.0,79,0.00,,,0.00,0,Wunderground v.1.15,2013-02-06 05:50:00,
2013-02-06 01:00:00,27.1,21.5,29.89,West,281,3.0,3.0,79,0.00,,,0.00,0,Wunderground v.1.15,2013-02-06 06:00:00,
2013-02-06 01:10:00,27.2,21.8,29.88,West,266,5.0,5.0,80,0.00,,,0.00,0,Wunderground v.1.15,2013-02-06 06:10:00,
2013-02-06 01:20:00,26.9,22.1,29.89,West,273,5.0,5.0,82,0.00,,,0.00,0,Wunderground v.1.15,2013-02-06 06:20:00,
2013-02-06 01:30:00,26.9,22.1,29.89,WNW,290,5.0,5.0,82,0.00,,,0.00,0,Wunderground v.1.15,2013-02-06 06:30:00,
2013-02-06 01:40:00,26.7,22.2,29.89,West,277,3.0,8.0,83,0.00,,,0.00,0,Wunderground v.1.15,2013-02-06 06:40:00,
2013-02-06 01:49:00,26.8,22.3,29.89,WNW,284,5.0,5.0,83,0.00,,,0.00,0,Wunderground v.1.15,2013-02-06 06:49:00,
2013-02-06 01:59:00,26.9,22.7,29.89,WNW,292,4.0,6.0,84,0.00,,,0.00,0,Wunderground v.1.15,2013-02-06 06:59:00,
2013-02-06 02:09:00,26.9,22.7,29.90,WSW,255,4.0,4.0,84,0.00,,,0.00,0,Wunderground v.1.15,2013-02-06 07:09:00,
2013-02-06 02:19:00,27.0,22.8,29.90,WSW,257,3.0,7.0,84,0.00,,,0.00,0,Wunderground v.1.15,2013-02-06 07:19:00,
2013-02-06 02:29:00,27.1,22.9,29.90,SSW,203,3.0,3.0,84,0.00,,,0.00,0,Wunderground v.1.15,2013-02-06 07:29:00,
2013-02-06 02:39:00,27.1,22.9,29.91,WSW,243,4.0,4.0,84,0.00,,,0.00,0,Wunderground v.1.15,2013-02-06 07:39:00,
2013-02-06 02:49:00,27.1,22.9,29.91,SW,222,4.0,4.0,84,0.00,,,0.00,0,Wunderground v.1.15,2013-02-06 07:49:00,
2013-02-06 02:59:00,27.2,23.0,29.91,WSW,254,3.0,3.0,84,0.00,,,0.00,0,Wunderground v.1.15,2013-02-06 07:59:00,
2013-02-06 03:09:00,27.3,23.1,29.91,SW,217,3.0,5.0,84,0.00,,,0.00,0,Wunderground v.1.15,2013-02-06 08:09:00,
2013-02-06 03:19:00,27.4,23.2,29.91,WSW,246,4.0,4.0,84,0.00,,,0.00,0,Wunderground v.1.15,2013-02-06 08:19:00,
2013-02-06 03:30:00,27.5,23.6,29.91,WSW,242,4.0,5.0,85,0.00,,,0.00,0,Wunderground v.1.15,2013-02-06 08:30:00,
2013-02-06 03:40:00,27.6,23.7,29.91,WSW,237,4.0,5.0,85,0.00,,,0.00,0,Wunderground v.1.15,2013-02-06 08:40:00,
2013-02-06 03:50:00,27.7,23.8,29.92,WNW,286,3.0,3.0,85,0.00,,,0.00,0,Wunderground v.1.15,2013-02-06 08:50:00,
2013-02-06 04:10:00,28.1,24.2,29.92,West,274,3.0,3.0,85,0.00,,,0.00,0,Wunderground v.1.15,2013-02-06 09:10:00,
2013-02-06 04:20:00,28.3,24.4,29.92,WSW,257,3.0,3.0,85,0.00,,,0.00,0,Wunderground v.1.15,2013-02-06 09:20:00,
2013-02-06 04:30:00,28.4,24.5,29.93,West,271,4.0,4.0,85,0.00,,,0.00,0,Wunderground v.1.15,2013-02-06 09:30:00,
2013-02-06 04:40:00,28.4,24.5,29.93,West,276,3.0,3.0,85,0.00,,,0.00,0,Wunderground v.1.15,2013-02-06 09:40:00,
2013-02-06 04:50:00,28.5,24.6,29.94,SW,224,3.0,6.0,85,0.00,,,0.00,0,Wunderground v.1.15,2013-02-06 09:50:00,
2013-02-06 05:00:00,28.6,24.7,29.95,SW,225,3.0,5.0,85,0.00,,,0.00,0,Wunderground v.1.15,2013-02-06 10:00:00,
2013-02-06 05:10:00,28.6,24.9,29.95,West,277,4.0,7.0,86,0.00,,,0.00,0,Wunderground v.1.15,2013-02-06 10:10:00,
2013-02-06 05:20:00,28.6,25.2,29.95,West,267,3.0,3.0,87,0.00,,,0.00,0,Wunderground v.1.15,2013-02-06 10:20:00,
2013-02-06 05:30:00,28.5,25.4,29.96,WNW,288,4.0,6.0,88,0.00,,,0.00,0,Wunderground v.1.15,2013-02-06 10:30:00,
2013-02-06 05:39:00,28.3,25.5,29.96,NW,311,3.0,5.0,89,0.00,,,0.00,0,Wunderground v.1.15,2013-02-06 10:39:00,
2013-02-06 05:49:00,28.3,25.5,29.97,West,280,4.0,7.0,89,0.00,,,0.00,0,Wunderground v.1.15,2013-02-06 10:49:00,
2013-02-06 05:59:00,28.2,25.6,29.97,West,261,4.0,5.0,90,0.00,,,0.00,0,Wunderground v.1.15,2013-02-06 10:59:00,
2013-02-06 06:09:00,28.2,25.1,29.97,West,280,5.0,5.0,88,0.00,,,0.00,0,Wunderground v.1.15,2013-02-06 11:09:00,
2013-02-06 06:19:00,28.3,24.6,29.98,West,281,5.0,5.0,86,0.00,,,0.00,0,Wunderground v.1.15,2013-02-06 11:19:00,
2013-02-06 06:29:00,28.5,24.3,29.99,WNW,284,5.0,5.0,84,0.00,,,0.00,0,Wunderground v.1.15,2013-02-06 11:29:00,
2013-02-06 06:39:00,28.7,23.6,29.99,WNW,289,6.0,6.0,81,0.00,,,0.00,0,Wunderground v.1.15,2013-02-06 11:39:00,
2013-02-06 06:49:00,28.7,23.3,30.00,SW,233,4.0,10.0,80,0.00,,,0.00,0,Wunderground v.1.15,2013-02-06 11:49:00,
2013-02-06 06:59:00,28.8,23.4,30.01,NW,324,7.0,7.0,80,0.00,,,0.00,0,Wunderground v.1.15,2013-02-06 11:59:00,
2013-02-06 07:10:00,28.6,23.8,30.01,WNW,283,6.0,7.0,82,0.00,,,0.00,0,Wunderground v.1.15,2013-02-06 12:10:00,
2013-02-06 07:20:00,28.1,24.5,30.02,NNW,328,7.0,7.0,86,0.00,,,0.00,0,Wunderground v.1.15,2013-02-06 12:20:00,
2013-02-06 07:30:00,27.6,24.5,30.03,NW,321,7.0,7.0,88,0.00,,,0.00,0,Wunderground v.1.15,2013-02-06 12:30:00,
2013-02-06 07:40:00,27.4,24.0,30.04,NNW,334,6.0,10.0,87,0.00,,,0.00,7,Wunderground v.1.15,2013-02-06 12:40:00,
2013-02-06 07:50:00,27.2,23.6,30.05,NW,305,7.0,8.0,86,0.00,,,0.00,16,Wunderground v.1.15,2013-02-06 12:50:00,
2013-02-06 08:00:00,27.1,22.3,30.06,NW,312,9.0,9.0,82,0.00,,,0.00,37,Wunderground v.1.15,2013-02-06 13:00:00,
2013-02-06 08:10:00,27.1,21.7,30.07,NW,318,7.0,7.0,80,0.00,,,0.00,54,Wunderground v.1.15,2013-02-06 13:10:00,
2013-02-06 08:20:00,27.0,20.1,30.08,WNW,293,11.0,12.0,75,0.00,,,0.00,83,Wunderground v.1.15,2013-02-06 13:20:00,
2013-02-06 08:30:00,27.1,19.3,30.09,WNW,298,11.0,12.0,72,0.00,,,0.00,102,Wunderground v.1.15,2013-02-06 13:30:00,
2013-02-06 08:40:00,27.2,19.0,30.09,NW,307,12.0,22.0,71,0.00,,,0.00,121,Wunderground v.1.15,2013-02-06 13:40:00,
2013-02-06 08:49:00,27.1,18.6,30.10,WNW,300,12.0,15.0,70,0.00,,,0.00,199,Wunderground v.1.15,2013-02-06 13:49:00,
2013-02-06 08:59:00,27.3,18.1,30.10,NW,308,12.0,12.0,68,0.00,,,0.00,156,Wunderground v.1.15,2013-02-06 13:59:00,
2013-02-06 09:09:00,27.2,18.7,30.11,WNW,297,12.0,12.0,70,0.00,,,0.00,295,Wunderground v.1.15,2013-02-06 14:09:00,
2013-02-06 09:19:00,27.1,18.6,30.11,NW,304,12.0,12.0,70,0.00,,,0.00,202,Wunderground v.1.15,2013-02-06 14:19:00,
2013-02-06 09:29:00,27.4,18.9,30.12,WNW,292,10.0,15.0,70,0.00,,,0.00,408,Wunderground v.1.15,2013-02-06 14:29:00,
2013-02-06 09:39:00,27.5,18.7,30.13,WNW,296,10.0,11.0,69,0.00,,,0.00,188,Wunderground v.1.15,2013-02-06 14:39:00,
2013-02-06 09:49:00,27.2,18.4,30.14,NW,305,12.0,17.0,69,0.00,,,0.00,148,Wunderground v.1.15,2013-02-06 14:49:00,
2013-02-06 09:59:00,26.5,19.6,30.14,NNW,331,10.0,10.0,75,0.00,,,0.00,116,Wunderground v.1.15,2013-02-06 14:59:00,
2013-02-06 10:09:00,25.6,19.7,30.15,NW,304,12.0,12.0,78,0.00,,,0.00,153,Wunderground v.1.15,2013-02-06 15:09:00,
2013-02-06 10:19:00,25.3,19.7,30.16,NW,305,12.0,16.0,79,0.00,,,0.00,195,Wunderground v.1.15,2013-02-06 15:19:00,
2013-02-06 10:29:00,25.2,19.3,30.16,WNW,285,11.0,22.0,78,0.00,,,0.00,455,Wunderground v.1.15,2013-02-06 15:29:00,
2013-02-06 10:39:00,25.4,18.6,30.18,West,271,13.0,13.0,75,0.00,,,0.00,304,Wunderground v.1.15,2013-02-06 15:39:00,
2013-02-06 10:49:00,25.6,18.1,30.18,NW,317,11.0,12.0,73,0.00,,,0.00,290,Wunderground v.1.15,2013-02-06 15:49:00,
2013-02-06 11:00:00,25.3,18.2,30.19,NW,313,12.0,12.0,74,0.00,,,0.00,272,Wunderground v.1.15,2013-02-06 16:00:00,
2013-02-06 11:10:00,24.8,18.0,30.19,WNW,295,13.0,16.0,75,0.00,,,0.00,248,Wunderground v.1.15,2013-02-06 16:10:00,
2013-02-06 11:20:00,24.6,17.5,30.19,NNW,331,11.0,11.0,74,0.00,,,0.00,246,Wunderground v.1.15,2013-02-06 16:20:00,
2013-02-06 11:30:00,24.4,17.0,30.20,NW,306,11.0,11.0,73,0.00,,,0.00,279,Wunderground v.1.15,2013-02-06 16:30:00,
2013-02-06 11:40:00,24.5,16.8,30.20,WNW,296,11.0,11.0,72,0.00,,,0.00,323,Wunderground v.1.15,2013-02-06 16:40:00,
2013-02-06 11:50:00,24.9,15.8,30.20,NW,322,13.0,13.0,68,0.00,,,0.00,336,Wunderground v.1.15,2013-02-06 16:50:00,
2013-02-06 12:00:00,24.6,15.2,30.21,WNW,284,11.0,11.0,67,0.00,,,0.00,325,Wunderground v.1.15,2013-02-06 17:00:00,
2013-02-06 12:10:00,24.5,14.4,30.21,NNW,341,10.0,15.0,65,0.00,,,0.00,229,Wunderground v.1.15,2013-02-06 17:10:00,
2013-02-06 12:20:00,25.5,15.0,30.21,NW,317,10.0,16.0,64,0.00,,,0.00,717,Wunderground v.1.15,2013-02-06 17:20:00,
2013-02-06 12:29:00,24.7,12.8,30.22,NW,313,12.0,12.0,60,0.00,,,0.00,652,Wunderground v.1.15,2013-02-06 17:29:00,
2013-02-06 12:39:00,24.3,12.0,30.23,NNW,343,13.0,19.0,59,0.00,,,0.00,647,Wunderground v.1.15,2013-02-06 17:39:00,
2013-02-06 12:49:00,24.5,11.8,30.23,NNW,338,12.0,16.0,58,0.00,,,0.00,642,Wunderground v.1.15,2013-02-06 17:49:00,
2013-02-06 12:59:00,24.5,11.4,30.23,NW,325,10.0,10.0,57,0.00,,,0.00,636,Wunderground v.1.15,2013-02-06 17:59:00,
2013-02-06 13:09:00,24.7,12.0,30.23,NW,325,11.0,11.0,58,0.00,,,0.00,631,Wunderground v.1.15,2013-02-06 18:09:00,
2013-02-06 13:19:00,24.0,9.3,30.24,NW,311,11.0,13.0,53,0.00,,,0.00,621,Wunderground v.1.15,2013-02-06 18:19:00,
2013-02-06 13:29:00,24.3,10.8,30.24,NW,324,10.0,10.0,56,0.00,,,0.00,612,Wunderground v.1.15,2013-02-06 18:29:00,
2013-02-06 13:39:00,24.3,10.8,30.24,NW,315,9.0,9.0,56,0.00,,,0.00,598,Wunderground v.1.15,2013-02-06 18:39:00,
2013-02-06 13:49:00,24.2,9.9,30.25,WNW,286,10.0,10.0,54,0.00,,,0.00,584,Wunderground v.1.15,2013-02-06 18:49:00,
2013-02-06 13:59:00,24.0,9.7,30.25,WNW,301,9.0,10.0,54,0.00,,,0.00,566,Wunderground v.1.15,2013-02-06 18:59:00,
2013-02-06 14:10:00,24.3,10.8,30.25,WNW,302,8.0,11.0,56,0.00,,,0.00,547,Wunderground v.1.15,2013-02-06 19:10:00,
2013-02-06 14:20:00,24.1,10.6,30.25,NW,321,9.0,9.0,56,0.00,,,0.00,529,Wunderground v.1.15,2013-02-06 19:20:00,
2013-02-06 14:30:00,24.8,11.3,30.26,NW,320,7.0,7.0,56,0.00,,,0.00,508,Wunderground v.1.15,2013-02-06 19:30:00,
2013-02-06 14:40:00,24.4,10.9,30.26,NW,322,8.0,8.0,56,0.00,,,0.00,485,Wunderground v.1.15,2013-02-06 19:40:00,
2013-02-06 14:50:00,24.3,10.8,30.26,NW,325,8.0,12.0,56,0.00,,,0.00,464,Wunderground v.1.15,2013-02-06 19:50:00,
2013-02-06 15:00:00,24.7,11.2,30.27,NW,319,7.0,13.0,56,0.00,,,0.00,438,Wunderground v.1.15,2013-02-06 20:00:00,
2013-02-06 15:10:00,24.4,11.7,30.28,NNW,347,9.0,9.0,58,0.00,,,0.00,408,Wunderground v.1.15,2013-02-06 20:10:00,
2013-02-06 15:20:00,24.1,11.4,30.28,NW,306,7.0,7.0,58,0.00,,,0.00,385,Wunderground v.1.15,2013-02-06 20:20:00,
2013-02-06 15:30:00,24.1,11.8,30.28,NW,312,7.0,10.0,59,0.00,,,0.00,355,Wunderground v.1.15,2013-02-06 20:30:00,
2013-02-06 15:40:00,24.0,11.3,30.29,NW,325,7.0,7.0,58,0.00,,,0.00,320,Wunderground v.1.15,2013-02-06 20:40:00,
2013-02-06 15:49:00,24.3,11.6,30.29,WNW,302,5.0,5.0,58,0.00,,,0.00,285,Wunderground v.1.15,2013-02-06 20:49:00,
2013-02-06 15:59:00,24.0,11.0,30.29,NW,307,5.0,5.0,57,0.00,,,0.00,246,Wunderground v.1.15,2013-02-06 20:59:00,
2013-02-06 16:10:00,24.0,11.7,30.30,NW,313,5.0,5.0,59,0.00,,,0.00,202,Wunderground v.1.15,2013-02-06 21:10:00,
2013-02-06 16:19:00,23.5,11.6,30.30,NNW,333,8.0,9.0,60,0.00,,,0.00,162,Wunderground v.1.15,2013-02-06 21:19:00,
2013-02-06 16:29:00,23.5,11.6,30.30,NNW,348,6.0,9.0,60,0.00,,,0.00,128,Wunderground v.1.15,2013-02-06 21:29:00,
2013-02-06 16:39:00,23.1,11.6,30.30,WNW,302,6.0,8.0,61,0.00,,,0.00,91,Wunderground v.1.15,2013-02-06 21:39:00,
2013-02-06 16:49:00,22.8,11.7,30.31,NW,323,6.0,10.0,62,0.00,,,0.00,51,Wunderground v.1.15,2013-02-06 21:49:00,
2013-02-06 16:59:00,22.5,11.8,30.31,NW,309,6.0,6.0,63,0.00,,,0.00,23,Wunderground v.1.15,2013-02-06 21:59:00,
2013-02-06 17:09:00,22.3,11.6,30.31,NNW,336,4.0,7.0,63,0.00,,,0.00,16,Wunderground v.1.15,2013-02-06 22:09:00,
2013-02-06 17:19:00,22.0,12.0,30.31,NW,318,4.0,4.0,65,0.00,,,0.00,11,Wunderground v.1.15,2013-02-06 22:19:00,
2013-02-06 17:29:00,21.7,11.7,30.31,WNW,303,3.0,3.0,65,0.00,,,0.00,5,Wunderground v.1.15,2013-02-06 22:29:00,
2013-02-06 17:39:00,21.3,11.7,30.32,NNW,333,3.0,3.0,66,0.00,,,0.00,0,Wunderground v.1.15,2013-02-06 22:39:00,
2013-02-06 17:49:00,21.2,11.9,30.32,NW,319,3.0,5.0,67,0.00,,,0.00,0,Wunderground v.1.15,2013-02-06 22:49:00,
2013-02-06 18:10:00,20.8,11.9,30.33,WNW,287,2.0,3.0,68,0.00,,,0.00,0,Wunderground v.1.15,2013-02-06 23:10:00,
2013-02-06 18:20:00,20.4,11.8,30.33,NW,306,1.0,1.0,69,0.00,,,0.00,0,Wunderground v.1.15,2013-02-06 23:20:00,
2013-02-06 18:30:00,19.8,11.6,30.33,NW,317,0.0,0.0,70,0.00,,,0.00,0,Wunderground v.1.15,2013-02-06 23:30:00,
2013-02-06 18:40:00,19.2,11.6,30.33,NW,319,0.0,0.0,72,0.00,,,0.00,0,Wunderground v.1.15,2013-02-06 23:40:00,
2013-02-06 18:50:00,19.0,11.8,30.34,NW,319,0.0,0.0,73,0.00,,,0.00,0,Wunderground v.1.15,2013-02-06 23:50:00,
2013-02-06 19:00:00,18.6,11.4,30.34,NW,319,0.0,0.0,73,0.00,,,0.00,0,Wunderground v.1.15,2013-02-07 00:00:00,
2013-02-06 19:10:00,18.2,11.3,30.35,NW,319,0.0,0.0,74,0.00,,,0.00,0,Wunderground v.1.15,2013-02-07 00:10:00,
2013-02-06 19:20:00,18.3,11.1,30.35,NW,319,0.0,0.0,73,0.00,,,0.00,0,Wunderground v.1.15,2013-02-07 00:20:00,
2013-02-06 19:29:00,18.0,11.4,30.35,NW,319,0.0,0.0,75,0.00,,,0.00,0,Wunderground v.1.15,2013-02-07 00:29:00,
2013-02-06 19:39:00,17.7,11.4,30.36,NW,319,0.0,0.0,76,0.00,,,0.00,0,Wunderground v.1.15,2013-02-07 00:39:00,
2013-02-06 19:49:00,17.6,11.3,30.37,NW,319,0.0,0.0,76,0.00,,,0.00,0,Wunderground v.1.15,2013-02-07 00:49:00,
2013-02-06 19:59:00,16.9,11.2,30.37,NW,319,0.0,0.0,78,0.00,,,0.00,0,Wunderground v.1.15,2013-02-07 00:59:00,
2013-02-06 20:09:00,17.0,11.9,30.38,NW,319,0.0,0.0,80,0.00,,,0.00,0,Wunderground v.1.15,2013-02-07 01:09:00,
2013-02-06 20:19:00,18.0,13.7,30.38,NW,319,0.0,0.0,83,0.00,,,0.00,0,Wunderground v.1.15,2013-02-07 01:19:00,
2013-02-06 20:29:00,19.2,14.3,30.38,NW,319,0.0,0.0,81,0.00,,,0.00,0,Wunderground v.1.15,2013-02-07 01:29:00,
2013-02-06 20:39:00,19.1,14.8,30.39,NW,319,0.0,0.0,83,0.00,,,0.00,0,Wunderground v.1.15,2013-02-07 01:39:00,
2013-02-06 20:49:00,18.6,14.6,30.39,NW,319,0.0,0.0,84,0.00,,,0.00,0,Wunderground v.1.15,2013-02-07 01:49:00,
2013-02-06 20:59:00,18.8,15.0,30.40,NW,319,0.0,0.0,85,0.00,,,0.00,0,Wunderground v.1.15,2013-02-07 01:59:00,
2013-02-06 21:09:00,18.7,14.7,30.39,NW,319,0.0,0.0,84,0.00,,,0.00,0,Wunderground v.1.15,2013-02-07 02:09:00,
2013-02-06 21:19:00,18.8,14.2,30.39,NW,319,0.0,0.0,82,0.00,,,0.00,0,Wunderground v.1.15,2013-02-07 02:19:00,
2013-02-06 21:40:00,18.1,14.4,30.39,NW,319,0.0,0.0,85,0.00,,,0.00,0,Wunderground v.1.15,2013-02-07 02:40:00,
2013-02-06 21:50:00,17.9,14.4,30.39,NW,319,0.0,0.0,86,0.00,,,0.00,0,Wunderground v.1.15,2013-02-07 02:50:00,
2013-02-06 22:00:00,17.7,13.4,30.39,NW,319,0.0,0.0,83,0.00,,,0.00,0,Wunderground v.1.15,2013-02-07 03:00:00,
2013-02-06 22:10:00,17.6,12.8,30.39,NW,319,0.0,0.0,81,0.00,,,0.00,0,Wunderground v.1.15,2013-02-07 03:10:00,
2013-02-06 22:20:00,17.4,12.6,30.39,NW,319,0.0,0.0,81,0.00,,,0.00,0,Wunderground v.1.15,2013-02-07 03:20:00,
2013-02-06 22:30:00,15.7,12.3,30.39,SSW,202,0.0,0.0,86,0.00,,,0.00,0,Wunderground v.1.15,2013-02-07 03:30:00,
2013-02-06 22:40:00,15.9,12.5,30.39,SSW,202,0.0,0.0,86,0.00,,,0.00,0,Wunderground v.1.15,2013-02-07 03:40:00,
2013-02-06 22:50:00,16.0,12.6,30.39,SSW,202,0.0,0.0,86,0.00,,,0.00,0,Wunderground v.1.15,2013-02-07 03:50:00,
2013-02-06 23:00:00,15.2,12.0,30.40,SSW,202,0.0,0.0,87,0.00,,,0.00,0,Wunderground v.1.15,2013-02-07 04:00:00,
2013-02-06 23:10:00,15.0,12.1,30.40,SSW,202,0.0,0.0,88,0.00,,,0.00,0,Wunderground v.1.15,2013-02-07 04:10:00,
2013-02-06 23:19:00,15.6,12.7,30.40,SSW,201,0.0,0.0,88,0.00,,,0.00,0,Wunderground v.1.15,2013-02-07 04:19:00,
2013-02-06 23:29:00,15.0,12.1,30.40,SSW,201,0.0,0.0,88,0.00,,,0.00,0,Wunderground v.1.15,2013-02-07 04:29:00,
2013-02-06 23:39:00,14.6,11.7,30.40,SSW,201,0.0,0.0,88,0.00,,,0.00,0,Wunderground v.1.15,2013-02-07 04:39:00,
2013-02-06 23:49:00,15.0,12.3,30.39,SSW,201,0.0,0.0,89,0.00,,,0.00,0,Wunderground v.1.15,2013-02-07 04:49:00,